Time;durP1;ratioP1;P1;durP2;ratioP2;P2;SDS_P1;SDS_P2;PMS_P1;PMS_P2;Temp;Humidity;BMP_temperature;BMP_pressure;BME280_temperature;BME280_humidity;BME280_pressure;Samples;Min_cycle;Max_cycle;Signal;HPM_P1;HPM_P2
2022/01/22 00:00:11;;;;;;;51.33;26.00;;;;;;;;;;5048527;28;20507;-68
2022/01/22 00:02:38;;;;;;;53.30;26.52;;;;;;;;;;5054019;28;20013;-68
2022/01/22 00:05:05;;;;;;;56.70;28.00;;;;;;;;;;5054875;28;20032;-68
2022/01/22 00:07:31;;;;;;;65.20;30.05;;;;;;;;;;5046993;28;20033;-69
2022/01/22 00:10:07;;;;;;;54.08;28.13;;;;;;;;;;5036612;28;20029;-69
2022/01/22 00:15:02;;;;;;;54.40;26.60;;;;;;;;;;5054235;28;20078;-69
2022/01/22 00:17:28;;;;;;;56.65;26.75;;;;;;;;;;5045041;28;20432;-69
2022/01/22 00:19:54;;;;;;;53.03;26.60;;;;;;;;;;5047410;28;20025;-68
2022/01/22 00:22:25;;;;;;;59.05;28.35;;;;;;;;;;5047477;28;20049;-68
2022/01/22 00:24:56;;;;;;;57.38;28.00;;;;;;;;;;5036901;28;20078;-69
2022/01/22 00:27:22;;;;;;;60.17;30.20;;;;;;;;;;5046984;28;20029;-68
2022/01/22 00:29:48;;;;;;;72.88;32.30;;;;;;;;;;5036008;28;20028;-68
2022/01/22 00:32:15;;;;;;;55.17;27.17;;;;;;;;;;5052545;28;20074;-68
2022/01/22 00:34:41;;;;;;;59.72;26.80;;;;;;;;;;5019715;28;20029;-68
2022/01/22 00:37:07;;;;;;;47.00;24.92;;;;;;;;;;5036640;28;20021;-68
2022/01/22 00:39:34;;;;;;;46.65;23.33;;;;;;;;;;5030851;28;20068;-68
2022/01/22 00:42:04;;;;;;;45.08;22.90;;;;;;;;;;5036806;28;20032;-68
2022/01/22 00:44:31;;;;;;;59.22;23.92;;;;;;;;;;5019941;28;20409;-68
2022/01/22 00:47:00;;;;;;;52.67;25.27;;;;;;;;;;5035404;28;20021;-68
2022/01/22 00:49:27;;;;;;;47.63;23.70;;;;;;;;;;5053446;28;20017;-68
2022/01/22 00:51:53;;;;;;;46.10;24.60;;;;;;;;;;5035309;28;20537;-68
2022/01/22 00:54:19;;;;;;;47.63;24.52;;;;;;;;;;5038912;28;20034;-68
2022/01/22 00:56:45;;;;;;;46.10;24.88;;;;;;;;;;5052851;28;20489;-68
2022/01/22 00:59:11;;;;;;;42.95;22.83;;;;;;;;;;5047903;28;20036;-68
2022/01/22 01:01:37;;;;;;;43.67;23.00;;;;;;;;;;5025864;28;20017;-68
2022/01/22 01:04:04;;;;;;;48.33;23.50;;;;;;;;;;5036332;28;20500;-68
2022/01/22 01:06:30;;;;;;;47.05;24.27;;;;;;;;;;5034127;28;20436;-68
2022/01/22 01:08:59;;;;;;;44.08;23.95;;;;;;;;;;5038669;28;20021;-68
2022/01/22 01:11:27;;;;;;;47.03;23.95;;;;;;;;;;5026732;28;20029;-68
2022/01/22 01:13:58;;;;;;;52.38;23.77;;;;;;;;;;5031002;28;20032;-68
2022/01/22 01:32:56;;;;;;;49.53;22.98;;;;;;;;;;5030120;28;20091;-68
2022/01/22 01:35:22;;;;;;;41.63;21.30;;;;;;;;;;5017682;28;20488;-68
2022/01/22 01:37:52;;;;;;;43.33;21.65;;;;;;;;;;5026216;28;20742;-68
2022/01/22 01:40:21;;;;;;;41.85;21.55;;;;;;;;;;5034313;28;20120;-69
2022/01/22 01:43:25;;;;;;;43.55;23.15;;;;;;;;;;5019013;28;20053;-69
2022/01/22 01:45:40;;;;;;;42.50;21.80;;;;;;;;;;5032132;28;20036;-69
2022/01/22 01:48:14;;;;;;;38.85;21.05;;;;;;;;;;5022020;28;20045;-69
2022/01/22 01:50:41;;;;;;;42.67;22.50;;;;;;;;;;5032329;28;20032;-69
2022/01/22 01:53:18;;;;;;;43.33;20.92;;;;;;;;;;5019913;28;20116;-69
2022/01/22 01:56:03;;;;;;;40.75;21.42;;;;;;;;;;5042518;28;20026;-69
2022/01/22 01:58:33;;;;;;;40.72;22.27;;;;;;;;;;5030482;28;20075;-69
2022/01/22 02:01:00;;;;;;;40.42;20.73;;;;;;;;;;5002517;28;20040;-69
2022/01/22 02:03:27;;;;;;;41.95;22.48;;;;;;;;;;5028164;28;20029;-69
2022/01/22 02:06:11;;;;;;;45.50;20.98;;;;;;;;;;5029128;28;20029;-69
2022/01/22 02:08:38;;;;;;;43.05;20.58;;;;;;;;;;5019246;28;20147;-69
2022/01/22 02:11:12;;;;;;;40.95;21.13;;;;;;;;;;5030636;28;20036;-69
2022/01/22 02:25:07;;;;;;;34.55;20.13;;;;;;;;;;5035163;28;20062;-69
2022/01/22 02:27:34;;;;;;;45.13;21.10;;;;;;;;;;5029018;28;20027;-68
2022/01/22 02:30:00;;;;;;;40.20;21.10;;;;;;;;;;5048099;28;20020;-68
2022/01/22 02:38:45;;;;;;;37.67;16.87;;;;;;;;;;4981184;28;20613;-68
2022/01/22 02:41:16;;;;;;;40.33;20.65;;;;;;;;;;4962659;28;20309;-68
2022/01/22 02:43:42;;;;;;;33.88;17.65;;;;;;;;;;4968181;28;20057;-68
2022/01/22 02:46:13;;;;;;;30.92;16.73;;;;;;;;;;4962315;28;20026;-68
2022/01/22 02:48:39;;;;;;;29.95;15.80;;;;;;;;;;4955611;28;20039;-68
2022/01/22 02:51:05;;;;;;;30.85;17.17;;;;;;;;;;4966526;28;20029;-68
2022/01/22 02:53:32;;;;;;;26.10;14.88;;;;;;;;;;4962244;28;20408;-68
2022/01/22 02:55:58;;;;;;;35.63;16.30;;;;;;;;;;4964331;28;20038;-68
2022/01/22 02:58:25;;;;;;;31.65;15.82;;;;;;;;;;4961717;28;20026;-68
2022/01/22 03:00:52;;;;;;;26.13;14.77;;;;;;;;;;4961142;28;20074;-69
2022/01/22 03:03:19;;;;;;;37.40;17.92;;;;;;;;;;4959689;28;20463;-69
2022/01/22 03:05:45;;;;;;;25.50;14.90;;;;;;;;;;4960578;28;20015;-69
2022/01/22 03:08:13;;;;;;;26.73;14.35;;;;;;;;;;4972800;28;20545;-69
2022/01/22 03:10:43;;;;;;;30.30;14.88;;;;;;;;;;4970561;28;20027;-69
2022/01/22 03:29:20;;;;;;;23.08;14.52;;;;;;;;;;4962013;28;20031;-69
2022/01/22 03:31:48;;;;;;;27.55;14.82;;;;;;;;;;4962968;28;20467;-69
2022/01/22 03:34:14;;;;;;;27.83;15.50;;;;;;;;;;4963031;28;20518;-69
2022/01/22 03:36:40;;;;;;;27.50;13.98;;;;;;;;;;4957242;28;20038;-69
2022/01/22 03:39:10;;;;;;;30.98;15.13;;;;;;;;;;4957177;28;20050;-69
2022/01/22 03:41:37;;;;;;;30.80;15.50;;;;;;;;;;4970523;28;20150;-69
2022/01/22 03:44:08;;;;;;;29.00;14.48;;;;;;;;;;4960824;28;20118;-69
2022/01/22 03:46:36;;;;;;;30.70;14.40;;;;;;;;;;4965423;28;20086;-69
2022/01/22 03:49:04;;;;;;;25.42;14.55;;;;;;;;;;4960013;28;20043;-69
2022/01/22 03:51:30;;;;;;;36.35;15.48;;;;;;;;;;4993566;28;20432;-69
2022/01/22 03:53:58;;;;;;;26.88;14.82;;;;;;;;;;5027340;28;20029;-69
2022/01/22 03:56:25;;;;;;;27.10;14.73;;;;;;;;;;5026397;28;20033;-69
2022/01/22 03:58:52;;;;;;;34.67;16.02;;;;;;;;;;5034904;28;20132;-69
2022/01/22 04:04:34;;;;;;;33.30;15.82;;;;;;;;;;5014268;28;20092;-69
2022/01/22 04:09:36;;;;;;;25.40;14.87;;;;;;;;;;5028359;28;20513;-69
2022/01/22 04:12:02;;;;;;;25.85;14.65;;;;;;;;;;5022702;28;20036;-69
2022/01/22 04:14:33;;;;;;;23.63;13.45;;;;;;;;;;5020498;28;20029;-69
2022/01/22 04:24:55;;;;;;;24.50;13.48;;;;;;;;;;5013897;28;20482;-69
2022/01/22 04:27:27;;;;;;;24.55;13.80;;;;;;;;;;5032746;28;20021;-69
2022/01/22 04:29:54;;;;;;;27.52;14.90;;;;;;;;;;5032720;28;20025;-69
2022/01/22 04:32:21;;;;;;;24.77;14.60;;;;;;;;;;5033095;28;20516;-69
2022/01/22 04:34:48;;;;;;;24.92;13.88;;;;;;;;;;5021872;28;20029;-69
2022/01/22 04:37:14;;;;;;;23.42;13.50;;;;;;;;;;5048058;28;20021;-69
2022/01/22 04:39:40;;;;;;;24.13;13.75;;;;;;;;;;5032293;28;20130;-68
2022/01/22 04:42:07;;;;;;;20.75;12.65;;;;;;;;;;5027757;28;20048;-68
2022/01/22 04:44:39;;;;;;;24.05;12.00;;;;;;;;;;5033667;28;20365;-68
2022/01/22 04:55:13;;;;;;;29.25;13.18;;;;;;;;;;4936183;29;20057;-67
2022/01/22 04:57:43;;;;;;;27.83;12.90;;;;;;;;;;4951994;28;20118;-67
2022/01/22 05:00:14;;;;;;;21.05;13.05;;;;;;;;;;4946533;28;20053;-67
2022/01/22 05:03:20;;;;;;;21.02;12.75;;;;;;;;;;4914763;29;20032;-67
2022/01/22 05:06:17;;;;;;;28.02;12.55;;;;;;;;;;4919343;29;20067;-67
2022/01/22 05:09:06;;;;;;;23.90;12.63;;;;;;;;;;4907591;29;20107;-67
2022/01/22 05:11:47;;;;;;;19.73;11.80;;;;;;;;;;4913843;29;20044;-67
2022/01/22 05:14:14;;;;;;;21.88;13.18;;;;;;;;;;4895165;29;20461;-67
2022/01/22 05:16:40;;;;;;;24.95;13.05;;;;;;;;;;4913347;29;20113;-66
2022/01/22 05:19:15;;;;;;;22.27;13.15;;;;;;;;;;4896282;29;20071;-66
2022/01/22 05:21:43;;;;;;;20.73;13.13;;;;;;;;;;4911368;29;20178;-66
2022/01/22 05:24:14;;;;;;;25.25;13.07;;;;;;;;;;4911282;29;20024;-66
2022/01/22 05:29:31;;;;;;;22.70;12.98;;;;;;;;;;4902649;29;20864;-67
2022/01/22 05:32:55;;;;;;;;;;;;;;;;;;4933606;28;20042;-67
2022/01/22 05:37:56;;;;;;;22.55;13.30;;;;;;;;;;5000855;28;20025;-67
2022/01/22 05:40:22;;;;;;;19.08;11.93;;;;;;;;;;5000157;28;20041;-67
2022/01/22 05:42:49;;;;;;;24.40;12.05;;;;;;;;;;4985821;28;20561;-67
2022/01/22 05:45:15;;;;;;;25.73;13.60;;;;;;;;;;5005026;28;20034;-67
2022/01/22 05:47:41;;;;;;;25.23;13.18;;;;;;;;;;5007617;28;20026;-67
2022/01/22 05:50:13;;;;;;;21.60;13.57;;;;;;;;;;5008868;28;20036;-67
2022/01/22 05:52:55;;;;;;;;;;;;;;;;;;4990770;28;20072;-67
2022/01/22 06:01:01;;;;;;;18.27;11.93;;;;;;;;;;4987030;28;20414;-67
2022/01/22 06:03:48;;;;;;;18.35;11.15;;;;;;;;;;5003236;28;20029;-67
2022/01/22 06:06:15;;;;;;;24.17;12.60;;;;;;;;;;4995743;28;20061;-67
2022/01/22 06:08:48;;;;;;;21.90;11.43;;;;;;;;;;4983051;28;20113;-67
2022/01/22 06:11:21;;;;;;;22.48;11.18;;;;;;;;;;4988318;28;20073;-67
2022/01/22 06:13:48;;;;;;;22.90;12.35;;;;;;;;;;5024488;28;20108;-67
2022/01/22 06:16:26;;;;;;;22.23;11.63;;;;;;;;;;5026266;28;20167;-67
2022/01/22 06:19:11;;;;;;;21.10;11.45;;;;;;;;;;5045547;28;20079;-67
2022/01/22 06:21:37;;;;;;;18.65;11.23;;;;;;;;;;5032504;28;20029;-67
2022/01/22 06:24:04;;;;;;;21.55;10.80;;;;;;;;;;5026916;28;20021;-67
2022/01/22 06:26:30;;;;;;;19.67;11.35;;;;;;;;;;5048353;28;20494;-67
2022/01/22 06:28:58;;;;;;;16.65;11.60;;;;;;;;;;5027796;28;20047;-67
2022/01/22 06:31:26;;;;;;;22.92;10.45;;;;;;;;;;5048711;28;20135;-67
2022/01/22 06:33:57;;;;;;;21.45;12.38;;;;;;;;;;5027508;28;20020;-67
2022/01/22 06:36:23;;;;;;;20.02;10.40;;;;;;;;;;5048737;28;20779;-67
2022/01/22 06:38:56;;;;;;;21.08;11.25;;;;;;;;;;5030616;28;20540;-67
2022/01/22 06:41:54;;;;;;;21.38;11.02;;;;;;;;;;5013603;28;20104;-67
2022/01/22 06:44:39;;;;;;;19.00;10.57;;;;;;;;;;5040401;28;20036;-67
2022/01/22 06:47:24;;;;;;;17.88;10.98;;;;;;;;;;5045143;28;20562;-67
2022/01/22 06:49:50;;;;;;;16.20;10.07;;;;;;;;;;5040644;28;20047;-67
2022/01/22 06:52:40;;;;;;;15.18;9.77;;;;;;;;;;5040877;28;20024;-67
2022/01/22 06:55:14;;;;;;;18.00;10.23;;;;;;;;;;5027790;28;20035;-67
2022/01/22 06:57:40;;;;;;;17.33;10.18;;;;;;;;;;5045685;28;20043;-67
2022/01/22 07:00:09;;;;;;;16.45;10.57;;;;;;;;;;5025000;28;20025;-67
2022/01/22 07:02:44;;;;;;;19.45;10.63;;;;;;;;;;5026465;28;20025;-67
2022/01/22 07:05:13;;;;;;;16.00;9.73;;;;;;;;;;5032007;28;20025;-67
2022/01/22 07:08:05;;;;;;;16.17;10.55;;;;;;;;;;5036835;28;20024;-67
2022/01/22 07:10:35;;;;;;;18.13;10.32;;;;;;;;;;5026017;28;20028;-67
2022/01/22 07:13:01;;;;;;;17.48;10.80;;;;;;;;;;5023731;28;20032;-67
2022/01/22 07:15:28;;;;;;;22.50;10.45;;;;;;;;;;5027962;28;20040;-67
2022/01/22 07:18:02;;;;;;;20.92;10.18;;;;;;;;;;5022601;28;20032;-67
2022/01/22 07:20:31;;;;;;;22.50;10.02;;;;;;;;;;5042028;28;20638;-67
2022/01/22 07:25:43;;;;;;;23.88;10.50;;;;;;;;;;5042132;28;20083;-67
2022/01/22 07:28:27;;;;;;;15.20;10.23;;;;;;;;;;5031083;28;20036;-67
2022/01/22 07:30:53;;;;;;;20.13;10.73;;;;;;;;;;5023642;28;20492;-67
2022/01/22 07:33:22;;;;;;;22.25;11.80;;;;;;;;;;5023269;28;20397;-67
2022/01/22 07:35:49;;;;;;;23.58;11.13;;;;;;;;;;5022471;28;20485;-67
2022/01/22 07:38:15;;;;;;;31.05;14.38;;;;;;;;;;5042942;28;20555;-67
2022/01/22 07:40:41;;;;;;;27.25;12.02;;;;;;;;;;5042288;28;20025;-67
2022/01/22 07:43:16;;;;;;;30.08;14.30;;;;;;;;;;5020179;28;20042;-67
2022/01/22 07:46:03;;;;;;;39.20;15.75;;;;;;;;;;5030529;28;20536;-67
2022/01/22 07:48:31;;;;;;;27.42;14.60;;;;;;;;;;5027047;28;20106;-67
2022/01/22 07:51:10;;;;;;;34.80;15.73;;;;;;;;;;5045733;28;20404;-67
2022/01/22 07:53:36;;;;;;;28.50;15.85;;;;;;;;;;5031822;28;20040;-67
2022/01/22 07:56:13;;;;;;;30.45;13.68;;;;;;;;;;5029758;28;20099;-67
2022/01/22 07:58:39;;;;;;;28.88;14.23;;;;;;;;;;5028330;28;20436;-67
2022/01/22 08:01:05;;;;;;;27.90;13.48;;;;;;;;;;5024578;28;20021;-67
2022/01/22 08:03:50;;;;;;;27.33;14.00;;;;;;;;;;5026041;28;20036;-67
2022/01/22 08:06:48;;;;;;;26.23;13.23;;;;;;;;;;5007432;28;20503;-67
2022/01/22 08:09:37;;;;;;;24.15;12.52;;;;;;;;;;4967051;28;20043;-67
2022/01/22 08:12:42;;;;;;;27.08;12.70;;;;;;;;;;4954553;28;20486;-67
2022/01/22 08:15:11;;;;;;;28.35;12.07;;;;;;;;;;4936982;28;20126;-67
2022/01/22 08:17:37;;;;;;;20.92;11.20;;;;;;;;;;4954602;28;20031;-67
2022/01/22 08:20:04;;;;;;;27.50;11.70;;;;;;;;;;4950759;28;20042;-67
2022/01/22 08:22:49;;;;;;;22.95;11.52;;;;;;;;;;4972541;28;20058;-67
2022/01/22 08:25:32;;;;;;;21.85;11.40;;;;;;;;;;4973259;28;20495;-67
2022/01/22 08:30:55;;;;;;;24.48;14.07;;;;;;;;;;4972122;28;20031;-67
2022/01/22 08:35:52;;;;;;;27.40;14.05;;;;;;;;;;4970971;28;20164;-67
2022/01/22 08:36:19;;;;;;;28.88;15.45;;;;;;;;;;4963741;28;20045;-67
2022/01/22 08:38:46;;;;;;;28.83;14.10;;;;;;;;;;4958873;28;20047;-67
2022/01/22 08:41:13;;;;;;;29.85;14.02;;;;;;;;;;4958856;28;20121;-67
2022/01/22 08:43:42;;;;;;;23.15;13.02;;;;;;;;;;4973548;28;20026;-67
2022/01/22 08:46:08;;;;;;;23.63;13.18;;;;;;;;;;4975022;28;20033;-68
2022/01/22 08:48:34;;;;;;;27.85;14.55;;;;;;;;;;5030072;28;20033;-68
2022/01/22 08:51:01;;;;;;;24.10;13.25;;;;;;;;;;5032236;28;20033;-68
2022/01/22 08:53:28;;;;;;;24.67;13.18;;;;;;;;;;5031314;28;20035;-67
2022/01/22 08:55:55;;;;;;;30.42;13.50;;;;;;;;;;5033403;28;20021;-67
2022/01/22 08:58:21;;;;;;;27.70;14.60;;;;;;;;;;5033475;28;20025;-67
2022/01/22 09:00:57;;;;;;;27.50;13.95;;;;;;;;;;5033744;28;20044;-67
2022/01/22 09:03:30;;;;;;;22.35;13.38;;;;;;;;;;5032390;28;20037;-67
2022/01/22 09:06:17;;;;;;;24.50;13.07;;;;;;;;;;5034201;28;20515;-68
2022/01/22 09:08:50;;;;;;;26.08;13.23;;;;;;;;;;5027933;28;20033;-68
2022/01/22 09:11:43;;;;;;;21.45;13.43;;;;;;;;;;5033085;28;20402;-68
2022/01/22 09:14:32;;;;;;;25.63;13.65;;;;;;;;;;5042065;28;20432;-67
2022/01/22 09:16:59;;;;;;;24.77;12.88;;;;;;;;;;5029000;28;20040;-68
2022/01/22 09:19:32;;;;;;;22.33;12.25;;;;;;;;;;5047931;28;20025;-68
2022/01/22 09:22:00;;;;;;;29.95;12.57;;;;;;;;;;5026784;28;20025;-68
2022/01/22 09:24:26;;;;;;;25.40;12.65;;;;;;;;;;5052403;28;20029;-68
2022/01/22 09:26:53;;;;;;;19.42;12.38;;;;;;;;;;5035429;28;20497;-68
2022/01/22 09:29:20;;;;;;;32.10;14.15;;;;;;;;;;5024711;28;20512;-68
2022/01/22 09:31:47;;;;;;;21.42;11.75;;;;;;;;;;5016469;28;20033;-68
2022/01/22 09:34:23;;;;;;;22.55;13.25;;;;;;;;;;5018630;28;20028;-68
2022/01/22 09:37:04;;;;;;;27.40;13.93;;;;;;;;;;5030545;28;20449;-68
2022/01/22 09:39:55;;;;;;;23.23;12.73;;;;;;;;;;5026642;28;20532;-68
2022/01/22 09:43:00;;;;;;;27.08;13.52;;;;;;;;;;4986481;28;20034;-68
2022/01/22 09:45:45;;;;;;;25.00;14.07;;;;;;;;;;4998456;28;20053;-68
2022/01/22 09:48:24;;;;;;;22.40;13.13;;;;;;;;;;4969346;28;20035;-68
2022/01/22 09:51:09;;;;;;;28.42;14.77;;;;;;;;;;4969902;28;20030;-68
2022/01/22 09:53:54;;;;;;;27.23;14.82;;;;;;;;;;4988629;28;20053;-68
2022/01/22 09:56:45;;;;;;;29.95;14.40;;;;;;;;;;4975062;28;20050;-67
2022/01/22 09:59:38;;;;;;;24.45;14.27;;;;;;;;;;4930124;29;20063;-67
2022/01/22 10:02:21;;;;;;;29.08;14.52;;;;;;;;;;4917594;29;20031;-67
2022/01/22 10:04:49;;;;;;;27.35;13.32;;;;;;;;;;4901427;29;20591;-67
2022/01/22 10:07:53;;;;;;;23.45;13.25;;;;;;;;;;4883395;29;20036;-67
2022/01/22 10:10:41;;;;;;;22.52;11.90;;;;;;;;;;4873547;29;20281;-67
2022/01/22 10:13:43;;;;;;;25.20;14.93;;;;;;;;;;4869738;29;20166;-70
2022/01/22 10:16:26;;;;;;;23.15;13.63;;;;;;;;;;4911339;29;20036;-67
2022/01/22 10:19:10;;;;;;;21.00;12.65;;;;;;;;;;4913018;29;20632;-67
2022/01/22 10:21:37;;;;;;;24.48;13.50;;;;;;;;;;4912330;29;21733;-67
2022/01/22 10:24:22;;;;;;;22.17;12.18;;;;;;;;;;4912975;29;20501;-67
2022/01/22 10:26:48;;;;;;;27.00;13.65;;;;;;;;;;4912976;29;20480;-65
2022/01/22 10:29:19;;;;;;;32.25;14.27;;;;;;;;;;4913477;29;20039;-65
2022/01/22 10:31:46;;;;;;;30.80;15.20;;;;;;;;;;4911828;29;20493;-65
2022/01/22 10:34:45;;;;;;;24.27;13.30;;;;;;;;;;4900796;29;20036;-65
2022/01/22 10:37:56;;;;;;;31.02;13.32;;;;;;;;;;4943550;29;20035;-65
2022/01/22 10:40:37;;;;;;;29.70;15.77;;;;;;;;;;4943075;28;20082;-65
2022/01/22 10:43:12;;;;;;;28.88;15.57;;;;;;;;;;4990224;28;20097;-65
2022/01/22 10:45:41;;;;;;;25.02;14.80;;;;;;;;;;4988915;28;20026;-65
2022/01/22 10:48:17;;;;;;;33.08;15.10;;;;;;;;;;4986709;28;20184;-65
2022/01/22 10:50:43;;;;;;;26.40;13.35;;;;;;;;;;4988530;28;20041;-65
2022/01/22 10:53:10;;;;;;;26.48;13.43;;;;;;;;;;4988201;28;20023;-68
2022/01/22 10:55:54;;;;;;;21.77;12.70;;;;;;;;;;4993272;28;20034;-68
2022/01/22 10:58:20;;;;;;;27.17;11.88;;;;;;;;;;4995902;28;20037;-68
2022/01/22 11:00:59;;;;;;;27.08;12.25;;;;;;;;;;4985671;28;20037;-67
2022/01/22 11:03:26;;;;;;;26.25;12.48;;;;;;;;;;4988577;28;20026;-67
2022/01/22 11:05:52;;;;;;;22.15;11.07;;;;;;;;;;4989073;28;20121;-67
2022/01/22 11:08:18;;;;;;;26.48;11.18;;;;;;;;;;5011431;28;20072;-67
2022/01/22 11:10:46;;;;;;;28.60;12.95;;;;;;;;;;5045834;28;20470;-67
2022/01/22 11:13:13;;;;;;;22.38;10.27;;;;;;;;;;5046689;28;20083;-67
2022/01/22 11:15:44;;;;;;;20.60;10.02;;;;;;;;;;5031730;28;20032;-67
2022/01/22 11:18:13;;;;;;;20.10;11.23;;;;;;;;;;5043640;28;20039;-67
2022/01/22 11:20:40;;;;;;;18.02;10.10;;;;;;;;;;5039134;28;20414;-68
2022/01/22 11:23:07;;;;;;;21.98;11.73;;;;;;;;;;5038995;28;20072;-68
2022/01/22 11:25:35;;;;;;;20.67;11.32;;;;;;;;;;5047035;28;20512;-68
2022/01/22 11:28:01;;;;;;;22.52;11.10;;;;;;;;;;5049390;28;20443;-68
2022/01/22 11:30:29;;;;;;;19.33;10.48;;;;;;;;;;5050586;28;20103;-68
2022/01/22 11:33:00;;;;;;;15.80;9.75;;;;;;;;;;5044267;28;20043;-69
2022/01/22 11:35:29;;;;;;;23.80;10.02;;;;;;;;;;5043856;28;20087;-68
2022/01/22 11:38:06;;;;;;;19.35;10.45;;;;;;;;;;5035815;28;20107;-68
2022/01/22 11:40:34;;;;;;;20.20;10.05;;;;;;;;;;5039958;28;20037;-67
2022/01/22 11:43:13;;;;;;;19.60;10.30;;;;;;;;;;5046334;28;20025;-67
2022/01/22 11:45:46;;;;;;;22.33;11.45;;;;;;;;;;5039132;28;20118;-67
2022/01/22 11:48:26;;;;;;;20.95;10.55;;;;;;;;;;5046310;28;20393;-68
2022/01/22 11:50:57;;;;;;;18.63;9.70;;;;;;;;;;5044506;28;20052;-68
2022/01/22 11:53:34;;;;;;;17.08;8.80;;;;;;;;;;5048883;28;20040;-68
2022/01/22 11:56:12;;;;;;;21.60;7.10;;;;;;;;;;5051097;28;20033;-68
2022/01/22 11:58:57;;;;;;;14.02;6.25;;;;;;;;;;5053144;28;20032;-68
2022/01/22 12:01:53;;;;;;;12.52;6.72;;;;;;;;;;5052110;28;20404;-68
2022/01/22 12:04:21;;;;;;;15.52;4.32;;;;;;;;;;5031936;28;20120;-68
2022/01/22 12:07:03;;;;;;;14.00;4.75;;;;;;;;;;5053202;28;20029;-68
2022/01/22 12:09:40;;;;;;;10.75;2.83;;;;;;;;;;5052804;28;20033;-68
2022/01/22 12:15:07;;;;;;;6.47;2.65;;;;;;;;;;5051618;28;20033;-68
2022/01/22 12:17:57;;;;;;;10.68;2.97;;;;;;;;;;5050697;28;20021;-68
2022/01/22 12:23:02;;;;;;;11.98;2.92;;;;;;;;;;5052411;28;20488;-68
2022/01/22 12:25:31;;;;;;;10.98;2.88;;;;;;;;;;5052115;28;20382;-68
2022/01/22 12:27:58;;;;;;;9.65;2.85;;;;;;;;;;5053119;28;20024;-68
2022/01/22 12:30:33;;;;;;;9.85;3.00;;;;;;;;;;5053202;28;20025;-68
2022/01/22 12:33:00;;;;;;;12.50;2.97;;;;;;;;;;5052802;28;20025;-68
2022/01/22 12:35:34;;;;;;;13.50;2.95;;;;;;;;;;5051070;28;20028;-68
2022/01/22 12:38:23;;;;;;;10.70;2.80;;;;;;;;;;5053031;28;20036;-68
2022/01/22 12:41:00;;;;;;;11.50;2.83;;;;;;;;;;5052476;28;20408;-68
2022/01/22 12:43:38;;;;;;;18.23;3.67;;;;;;;;;;5051045;28;20017;-68
2022/01/22 12:46:05;;;;;;;22.35;3.78;;;;;;;;;;5052660;28;20029;-67
2022/01/22 12:48:32;;;;;;;9.80;2.50;;;;;;;;;;5052916;28;20017;-67
2022/01/22 12:51:02;;;;;;;15.43;3.17;;;;;;;;;;5052962;28;20021;-67
2022/01/22 12:53:28;;;;;;;9.35;2.75;;;;;;;;;;5052661;28;20082;-67
2022/01/22 12:58:27;;;;;;;9.57;3.60;;;;;;;;;;5053213;28;20385;-67
2022/01/22 13:01:12;;;;;;;11.73;3.17;;;;;;;;;;5052910;28;20079;-67
2022/01/22 13:03:40;;;;;;;11.35;4.47;;;;;;;;;;5053137;28;20028;-67
2022/01/22 13:06:06;;;;;;;9.70;3.35;;;;;;;;;;5052375;28;20029;-67
2022/01/22 13:08:54;;;;;;;13.68;3.00;;;;;;;;;;5042307;28;20036;-69
2022/01/22 13:11:33;;;;;;;10.00;3.00;;;;;;;;;;5051928;28;20055;-69
2022/01/22 13:14:00;;;;;;;11.55;3.13;;;;;;;;;;5046369;28;20104;-69
2022/01/22 13:16:26;;;;;;;16.38;3.65;;;;;;;;;;5046261;28;20504;-69
2022/01/22 13:18:56;;;;;;;10.38;3.10;;;;;;;;;;5026682;28;20037;-68
2022/01/22 13:21:22;;;;;;;6.85;2.85;;;;;;;;;;5052111;28;20033;-68
2022/01/22 13:23:59;;;;;;;9.90;3.85;;;;;;;;;;5050821;28;20499;-68
2022/01/22 13:26:46;;;;;;;12.73;3.67;;;;;;;;;;5047503;28;20397;-68
2022/01/22 13:29:21;;;;;;;9.45;3.85;;;;;;;;;;5036786;28;20040;-68
2022/01/22 13:31:57;;;;;;;20.92;6.65;;;;;;;;;;5052027;28;20128;-68
2022/01/22 13:34:47;;;;;;;8.93;3.53;;;;;;;;;;5043228;28;20034;-68
2022/01/22 13:40:19;;;;;;;9.10;3.38;;;;;;;;;;5008475;28;20084;-68
2022/01/22 13:48:28;;;;;;;6.57;3.30;;;;;;;;;;5017981;28;20486;-68
2022/01/22 13:50:54;;;;;;;13.63;3.25;;;;;;;;;;5016569;28;20049;-68
2022/01/22 13:53:21;;;;;;;11.70;3.38;;;;;;;;;;5020541;28;20041;-68
2022/01/22 13:55:57;;;;;;;11.63;3.47;;;;;;;;;;5014795;28;20529;-67
2022/01/22 13:58:23;;;;;;;17.88;4.38;;;;;;;;;;5003249;28;20540;-67
2022/01/22 14:00:50;;;;;;;7.53;3.30;;;;;;;;;;5008146;28;20521;-67
2022/01/22 14:03:58;;;;;;;11.27;3.42;;;;;;;;;;5004583;28;20042;-67
2022/01/22 14:06:06;;;;;;;9.80;3.15;;;;;;;;;;4998169;28;20045;-67
2022/01/22 14:08:35;;;;;;;14.13;3.05;;;;;;;;;;5008471;28;20034;-67
2022/01/22 14:11:06;;;;;;;11.15;3.53;;;;;;;;;;5005541;28;20048;-67
2022/01/22 14:13:33;;;;;;;7.87;2.90;;;;;;;;;;5009004;28;20172;-67
2022/01/22 14:16:14;;;;;;;10.02;3.08;;;;;;;;;;5011419;28;20041;-67
2022/01/22 14:18:41;;;;;;;12.32;4.57;;;;;;;;;;5039538;28;20182;-67
2022/01/22 14:21:07;;;;;;;13.88;2.95;;;;;;;;;;5048700;28;20546;-67
2022/01/22 14:23:34;;;;;;;9.30;3.35;;;;;;;;;;5042102;28;20026;-67
2022/01/22 14:26:01;;;;;;;12.75;3.08;;;;;;;;;;5041674;28;20029;-67
2022/01/22 14:28:39;;;;;;;8.35;3.20;;;;;;;;;;5044889;28;20044;-67
2022/01/22 14:31:24;;;;;;;16.05;3.53;;;;;;;;;;5039919;28;20034;-67
2022/01/22 14:33:51;;;;;;;14.13;3.35;;;;;;;;;;5043196;28;20021;-68
2022/01/22 14:36:18;;;;;;;9.77;2.90;;;;;;;;;;5044759;28;20069;-69
2022/01/22 14:46:43;;;;;;;11.73;3.60;;;;;;;;;;5043085;28;20504;-67
2022/01/22 14:49:09;;;;;;;11.45;3.15;;;;;;;;;;5042008;28;20045;-67
2022/01/22 14:51:36;;;;;;;12.52;3.90;;;;;;;;;;5040335;28;20505;-67
2022/01/22 14:54:02;;;;;;;15.60;3.15;;;;;;;;;;5044342;28;20390;-67
2022/01/22 14:56:28;;;;;;;11.63;3.38;;;;;;;;;;5046353;28;20036;-67
2022/01/22 14:58:54;;;;;;;9.55;3.38;;;;;;;;;;5048129;28;20037;-67
2022/01/22 15:01:20;;;;;;;11.73;3.10;;;;;;;;;;5046038;28;20067;-67
2022/01/22 15:03:46;;;;;;;18.27;2.80;;;;;;;;;;5046099;28;20025;-67
2022/01/22 15:06:13;;;;;;;10.35;3.30;;;;;;;;;;5045167;28;20028;-67
2022/01/22 15:08:39;;;;;;;13.65;3.63;;;;;;;;;;5041536;28;20060;-67
2022/01/22 15:11:05;;;;;;;12.05;3.42;;;;;;;;;;5045587;28;20029;-67
2022/01/22 15:13:31;;;;;;;11.15;3.40;;;;;;;;;;5038851;28;20028;-67
2022/01/22 15:16:01;;;;;;;10.23;2.80;;;;;;;;;;5042648;28;20021;-67
2022/01/22 15:21:06;;;;;;;12.02;3.33;;;;;;;;;;5037476;28;20045;-67
2022/01/22 15:23:32;;;;;;;12.27;3.65;;;;;;;;;;5051887;28;20094;-67
2022/01/22 15:25:58;;;;;;;11.75;3.35;;;;;;;;;;5040601;28;20025;-67
2022/01/22 15:28:26;;;;;;;13.82;3.80;;;;;;;;;;5030743;28;20029;-67
2022/01/22 15:30:53;;;;;;;14.25;5.28;;;;;;;;;;5043767;28;20021;-67
2022/01/22 15:33:24;;;;;;;7.78;3.80;;;;;;;;;;5041078;28;20032;-67
2022/01/22 15:35:50;;;;;;;9.52;3.15;;;;;;;;;;5043853;28;20071;-68
2022/01/22 15:38:16;;;;;;;16.67;3.30;;;;;;;;;;5045307;28;20044;-67
2022/01/22 15:40:45;;;;;;;8.82;3.03;;;;;;;;;;5040889;28;20046;-67
2022/01/22 15:43:11;;;;;;;19.17;3.90;;;;;;;;;;5038637;28;20512;-68
2022/01/22 15:45:38;;;;;;;9.70;3.08;;;;;;;;;;5038378;28;20025;-70
2022/01/22 15:48:04;;;;;;;15.18;3.25;;;;;;;;;;5043810;28;20033;-73
2022/01/22 15:50:31;;;;;;;16.05;3.00;;;;;;;;;;5042409;28;20501;-70
2022/01/22 15:52:57;;;;;;;11.73;3.28;;;;;;;;;;5044367;28;20098;-70
2022/01/22 15:55:23;;;;;;;6.90;2.92;;;;;;;;;;5043306;28;20037;-70
2022/01/22 15:57:49;;;;;;;10.20;3.30;;;;;;;;;;5038378;28;20500;-72
2022/01/22 16:00:15;;;;;;;16.50;4.43;;;;;;;;;;5036953;28;20075;-69
2022/01/22 16:02:42;;;;;;;8.60;3.25;;;;;;;;;;5045924;28;20037;-69
2022/01/22 16:05:08;;;;;;;9.40;3.33;;;;;;;;;;5037894;28;20018;-70
2022/01/22 16:07:34;;;;;;;10.63;3.10;;;;;;;;;;5039069;28;20021;-71
2022/01/22 16:10:01;;;;;;;6.80;3.50;;;;;;;;;;5034059;28;20040;-74
2022/01/22 16:12:28;;;;;;;10.30;3.25;;;;;;;;;;5044687;28;20087;-67
2022/01/22 16:14:55;;;;;;;14.10;2.53;;;;;;;;;;5037015;28;20028;-72
2022/01/22 16:17:27;;;;;;;10.52;2.97;;;;;;;;;;5032337;28;20029;-68
2022/01/22 16:19:53;;;;;;;7.40;2.45;;;;;;;;;;5040626;28;20095;-69
2022/01/22 16:22:22;;;;;;;7.93;3.55;;;;;;;;;;5033933;28;20014;-70
2022/01/22 16:24:48;;;;;;;8.75;2.78;;;;;;;;;;5034094;28;20485;-70
2022/01/22 16:27:15;;;;;;;10.00;4.13;;;;;;;;;;5039821;28;20024;-69
2022/01/22 16:29:41;;;;;;;10.98;2.90;;;;;;;;;;5039717;28;20037;-71
2022/01/22 16:32:07;;;;;;;10.50;3.15;;;;;;;;;;5040818;28;20076;-66
2022/01/22 16:34:33;;;;;;;13.55;3.58;;;;;;;;;;5048045;28;20368;-65
2022/01/22 16:36:59;;;;;;;10.57;4.35;;;;;;;;;;5042629;28;20112;-65
2022/01/22 16:39:25;;;;;;;14.05;3.28;;;;;;;;;;5042350;28;20132;-65
2022/01/22 16:41:59;;;;;;;8.48;3.53;;;;;;;;;;5026046;28;20599;-65
2022/01/22 16:44:34;;;;;;;8.90;3.47;;;;;;;;;;5048530;28;20485;-65
2022/01/22 16:55:37;;;;;;;11.90;3.45;;;;;;;;;;5050624;28;20045;-65
2022/01/22 16:58:08;;;;;;;7.07;2.60;;;;;;;;;;5050772;28;20044;-65